KBMT

Details ICAO KBMT
Name BEAUMONT MUNI
Region United States
Timezone America/Chicago (UTC-6.0)
Plans Departing 18
Arriving 13
Stats Elevation 32 ft / 10 m (AMSL)
Location 30.070107° -94.214770°
Runways 2
Magnetic Variation 1.781° E
Sunrise 2017-12-13 13:05:41 UTC / 2017-12-13 07:05:41 Local
Sunset 2017-12-13 23:19:30 UTC / 2017-12-13 17:19:30 Local
Advertisement - Login to hide

Runways

ID Width Length Bearing (true) Bearing (mag) Surface Threshold Offset Overrun Length
13 75 ft / 23 m 3,982 ft / 1,214 m 132.14° 130.36° Asphalt 332 ft / 101 m 0 ft / 0 m
16 100 ft / 30 m 2,307 ft / 703 m 169.06° 167.28° Grass 0 ft / 0 m 0 ft / 0 m
31 75 ft / 23 m 3,982 ft / 1,214 m 312.14° 310.36° Asphalt 67 ft / 20 m 0 ft / 0 m
34 100 ft / 30 m 2,307 ft / 703 m 349.06° 347.28° Grass 0 ft / 0 m 0 ft / 0 m

Map

Weather


0- 5 10 15 20 25 30 35+ Temperature / ° C

Clouds and Precipitation
Forecast for 2017-12-13 12:00 UTC. Updated 22 minutes ago

Ground ~20,000 ft ~40,000 ft Winds

METAR

KBMT 130935Z AUTO 00000KT 10SM CLR 01/00 A3020 RMK AO2 T00110000

TAF

Not found

Frequencies

Unicom 123.00 MHz CTAF/UNICOM
Approach 121.30 MHz APP/DEP
Clearance 121.75 MHz CLNC DEL
Warning: Do not use this data for real-world aviation or navigation. No guarantee of current accuracy is given.